Time;durP1;ratioP1;P1;durP2;ratioP2;P2;SDS_P1;SDS_P2;PMS_P1;PMS_P2;Temp;Humidity;BMP_temperature;BMP_pressure;BME280_temperature;BME280_humidity;BME280_pressure;Samples;Min_cycle;Max_cycle;Signal;HPM_P1;HPM_P2
2024/01/22 00:01:55;;;;;;;4.25;2.20;;;4.10;1.00;;;;;;7378997;19;20067;-69
2024/01/22 00:04:28;;;;;;;3.47;1.85;;;4.00;1.00;;;;;;7378752;19;20003;-69
2024/01/22 00:06:58;;;;;;;4.38;2.40;;;4.20;1.00;;;;;;7379534;19;20078;-70
2024/01/22 00:09:28;;;;;;;4.18;2.00;;;4.00;1.00;;;;;;7379330;19;20010;-70
2024/01/22 00:11:58;;;;;;;4.30;1.95;;;4.10;1.00;;;;;;7378752;19;20031;-70
2024/01/22 00:14:28;;;;;;;4.47;2.00;;;4.10;1.00;;;;;;7377690;19;20015;-71
2024/01/22 00:16:58;;;;;;;4.22;2.20;;;4.10;1.00;;;;;;7378674;19;20027;-71
2024/01/22 00:19:30;;;;;;;3.47;1.92;;;4.20;1.00;;;;;;7379405;19;20025;-69
2024/01/22 00:22:01;;;;;;;4.68;1.92;;;4.00;1.00;;;;;;7376426;19;20039;-69
2024/01/22 00:24:31;;;;;;;3.58;1.77;;;3.90;1.00;;;;;;7378007;19;20010;-69
2024/01/22 00:27:01;;;;;;;6.07;2.00;;;4.00;1.00;;;;;;7378907;19;20024;-70
2024/01/22 00:29:30;;;;;;;7.78;1.77;;;3.90;1.00;;;;;;7375507;19;20018;-70
2024/01/22 00:32:01;;;;;;;4.53;2.03;;;4.00;1.00;;;;;;7378173;19;20018;-69
2024/01/22 00:34:33;;;;;;;3.28;1.70;;;4.00;1.00;;;;;;7376866;19;20479;-69
2024/01/22 00:37:03;;;;;;;3.30;1.63;;;4.10;1.00;;;;;;7378066;19;20015;-70
2024/01/22 00:39:33;;;;;;;3.22;1.98;;;4.00;1.00;;;;;;7378559;19;20027;-69
2024/01/22 00:42:03;;;;;;;2.33;1.60;;;3.90;1.00;;;;;;7376514;19;20368;-69
2024/01/22 00:44:33;;;;;;;4.85;1.92;;;3.90;1.00;;;;;;7377017;19;20422;-69
2024/01/22 00:47:03;;;;;;;2.38;1.67;;;3.80;1.00;;;;;;7377576;19;20579;-70
2024/01/22 00:49:36;;;;;;;5.07;1.77;;;3.90;1.00;;;;;;7377920;19;20658;-70
2024/01/22 00:52:06;;;;;;;4.05;2.17;;;3.90;1.00;;;;;;7376511;19;20534;-70
2024/01/22 00:54:36;;;;;;;5.30;2.30;;;3.80;1.00;;;;;;7377734;19;20014;-69
2024/01/22 00:57:07;;;;;;;3.85;2.40;;;3.70;1.00;;;;;;7377261;19;20082;-69
2024/01/22 00:59:38;;;;;;;5.10;2.78;;;3.70;1.00;;;;;;7376330;19;20003;-69
2024/01/22 01:02:08;;;;;;;4.78;2.75;;;3.70;1.00;;;;;;7376353;19;20017;-70
2024/01/22 01:04:42;;;;;;;5.35;2.50;;;3.60;1.00;;;;;;7376417;19;20094;-70
2024/01/22 01:07:12;;;;;;;4.50;2.17;;;3.60;1.00;;;;;;7376551;19;20014;-69
2024/01/22 01:09:43;;;;;;;2.90;2.00;;;3.80;1.00;;;;;;7376481;19;20375;-69
2024/01/22 01:12:13;;;;;;;4.13;1.90;;;3.80;1.00;;;;;;7376882;19;20034;-69
2024/01/22 01:14:43;;;;;;;3.58;1.98;;;3.90;1.00;;;;;;7378383;19;20029;-69
2024/01/22 01:17:13;;;;;;;4.82;2.00;;;4.00;1.00;;;;;;7383515;19;20030;-69
2024/01/22 01:19:46;;;;;;;3.33;1.98;;;4.10;1.00;;;;;;7378554;19;20403;-69
2024/01/22 01:22:16;;;;;;;3.40;1.90;;;4.20;1.00;;;;;;7376158;19;20818;-69
2024/01/22 01:24:46;;;;;;;4.28;2.35;;;4.10;1.00;;;;;;7376031;19;20003;-69
2024/01/22 01:27:18;;;;;;;3.13;1.95;;;4.20;1.00;;;;;;7374398;19;20006;-70
2024/01/22 01:29:48;;;;;;;4.30;2.03;;;4.10;1.00;;;;;;7376815;19;20014;-69
2024/01/22 01:32:19;;;;;;;2.65;1.83;;;4.10;1.00;;;;;;7374144;19;20018;-69
2024/01/22 01:35:01;;;;;;;4.10;2.42;;;4.10;1.00;;;;;;7374743;19;20014;-70
2024/01/22 01:37:32;;;;;;;3.80;2.10;;;4.00;1.00;;;;;;7376669;19;20010;-69
2024/01/22 01:40:02;;;;;;;3.03;2.08;;;4.10;1.00;;;;;;7375029;19;20015;-70
2024/01/22 01:42:32;;;;;;;3.38;2.53;;;3.90;1.00;;;;;;7375813;19;20010;-70
2024/01/22 01:45:02;;;;;;;4.22;2.00;;;3.70;1.00;;;;;;7376065;19;20358;-70
2024/01/22 01:47:32;;;;;;;4.25;2.38;;;3.70;1.00;;;;;;7376035;19;20014;-70
2024/01/22 01:50:05;;;;;;;11.98;2.80;;;3.80;1.00;;;;;;7375771;19;20007;-69
2024/01/22 01:52:35;;;;;;;4.85;2.20;;;3.80;1.00;;;;;;7374823;19;20014;-70
2024/01/22 01:55:07;;;;;;;8.20;2.55;;;3.60;1.00;;;;;;7374738;19;20095;-69
2024/01/22 01:57:39;;;;;;;4.07;2.40;;;3.70;1.00;;;;;;7375333;19;20006;-69
2024/01/22 02:00:12;;;;;;;2.58;1.88;;;3.50;1.00;;;;;;7374895;19;20593;-68
2024/01/22 02:02:43;;;;;;;3.60;2.30;;;3.40;1.00;;;;;;7373460;19;22477;-69
2024/01/22 02:05:17;;;;;;;5.68;2.20;;;3.50;1.00;;;;;;7373982;19;20006;-68
2024/01/22 02:07:48;;;;;;;2.75;2.17;;;3.50;1.00;;;;;;7374644;19;20007;-70
2024/01/22 02:10:18;;;;;;;5.03;2.25;;;3.50;1.00;;;;;;7374163;19;20007;-70
2024/01/22 02:12:48;;;;;;;5.25;2.33;;;3.60;1.00;;;;;;7373382;19;20025;-69
2024/01/22 02:15:18;;;;;;;4.32;2.38;;;3.60;1.00;;;;;;7375892;19;20040;-69
2024/01/22 02:17:48;;;;;;;5.10;2.60;;;3.60;1.00;;;;;;7375675;19;20014;-70
2024/01/22 02:20:21;;;;;;;3.97;2.25;;;3.60;1.00;;;;;;7374460;19;20010;-69
2024/01/22 02:22:51;;;;;;;4.97;2.47;;;3.60;1.00;;;;;;7371655;19;20015;-69
2024/01/22 02:25:24;;;;;;;4.72;2.90;;;3.40;1.00;;;;;;7375738;19;20018;-70
2024/01/22 02:27:54;;;;;;;5.78;2.97;;;3.30;1.00;;;;;;7371219;19;20015;-70
2024/01/22 02:30:24;;;;;;;5.32;3.00;;;3.30;1.00;;;;;;7373154;19;20035;-69
2024/01/22 02:32:55;;;;;;;5.15;3.05;;;3.20;1.00;;;;;;7375434;19;20017;-69
2024/01/22 02:35:25;;;;;;;6.85;3.70;;;3.10;1.00;;;;;;7373699;19;20019;-70
2024/01/22 02:37:55;;;;;;;9.48;3.65;;;3.10;1.00;;;;;;7375217;19;20010;-69
2024/01/22 02:40:28;;;;;;;6.35;4.53;;;3.10;1.00;;;;;;7373564;19;20017;-70
2024/01/22 02:42:58;;;;;;;6.25;4.00;;;3.00;1.00;;;;;;7373713;19;20013;-69
2024/01/22 02:45:28;;;;;;;6.85;4.63;;;2.90;1.00;;;;;;7372736;19;20006;-69
2024/01/22 02:47:58;;;;;;;6.28;4.00;;;3.00;1.00;;;;;;7373876;19;20011;-68
2024/01/22 02:50:28;;;;;;;6.78;4.13;;;3.00;1.00;;;;;;7371819;19;20010;-69
2024/01/22 02:52:58;;;;;;;5.97;4.20;;;2.80;1.00;;;;;;7378199;19;20021;-69
2024/01/22 02:55:31;;;;;;;6.78;4.50;;;2.80;1.00;;;;;;7380587;19;20090;-69
2024/01/22 02:58:01;;;;;;;8.90;4.90;;;2.80;1.00;;;;;;7380449;19;20006;-69
2024/01/22 03:00:31;;;;;;;8.95;4.38;;;2.80;1.00;;;;;;7380221;19;20014;-68
2024/01/22 03:03:01;;;;;;;7.63;4.45;;;2.80;1.00;;;;;;7381035;19;20471;-69
2024/01/22 03:05:31;;;;;;;7.78;5.32;;;2.80;1.00;;;;;;7380020;19;20019;-70
2024/01/22 03:08:01;;;;;;;7.47;4.60;;;2.80;1.00;;;;;;7381428;19;20022;-70
2024/01/22 03:10:33;;;;;;;9.63;4.88;;;2.70;1.00;;;;;;7380472;19;20078;-69
2024/01/22 03:13:03;;;;;;;8.27;4.80;;;2.80;1.00;;;;;;7381536;19;20010;-70
2024/01/22 03:15:34;;;;;;;4.68;3.60;;;2.80;1.00;;;;;;7378573;19;20014;-69
2024/01/22 03:18:04;;;;;;;6.13;3.53;;;2.80;1.00;;;;;;7380769;19;20015;-70
2024/01/22 03:20:37;;;;;;;5.97;4.22;;;2.90;1.00;;;;;;7379748;19;20029;-69
2024/01/22 03:23:07;;;;;;;6.35;4.28;;;3.00;1.00;;;;;;7380319;19;20039;-69
2024/01/22 03:25:40;;;;;;;8.18;4.32;;;3.00;1.00;;;;;;7379750;19;20010;-70
2024/01/22 03:28:10;;;;;;;9.27;4.85;;;3.10;1.00;;;;;;7381187;19;20368;-69
2024/01/22 03:30:40;;;;;;;10.43;5.60;;;3.10;1.00;;;;;;7380087;19;20403;-70
2024/01/22 03:33:10;;;;;;;9.23;5.25;;;3.10;1.00;;;;;;7380709;19;20035;-70
2024/01/22 03:35:40;;;;;;;6.72;5.05;;;3.10;1.00;;;;;;7379626;19;20007;-70
2024/01/22 03:38:13;;;;;;;9.00;5.35;;;3.10;1.00;;;;;;7386942;19;20011;-69
2024/01/22 03:40:46;;;;;;;14.43;5.80;;;3.20;1.00;;;;;;7381147;19;20577;-70
2024/01/22 03:43:16;;;;;;;8.13;5.28;;;3.10;1.00;;;;;;7380082;19;20007;-69
2024/01/22 03:45:46;;;;;;;9.25;6.20;;;3.10;1.00;;;;;;7378220;19;20757;-70
2024/01/22 03:48:16;;;;;;;11.50;6.47;;;3.20;1.00;;;;;;7380431;19;20010;-70
2024/01/22 03:50:46;;;;;;;9.52;5.85;;;3.00;1.00;;;;;;7380286;19;20006;-70
2024/01/22 03:53:16;;;;;;;10.85;6.93;;;3.00;1.00;;;;;;7379883;19;20085;-69
2024/01/22 03:55:49;;;;;;;11.63;6.53;;;3.00;1.00;;;;;;7380757;19;20476;-69
2024/01/22 03:58:19;;;;;;;11.00;6.35;;;2.90;1.00;;;;;;7380260;19;20683;-69
2024/01/22 04:00:49;;;;;;;8.95;6.20;;;2.90;1.00;;;;;;7380533;19;20619;-70
2024/01/22 04:03:19;;;;;;;11.15;6.05;;;2.90;1.00;;;;;;7377737;19;20094;-69
2024/01/22 04:05:49;;;;;;;7.53;5.68;;;2.90;1.00;;;;;;7376863;19;20036;-70
2024/01/22 04:08:21;;;;;;;9.30;6.10;;;2.80;1.00;;;;;;7380300;19;20006;-69
2024/01/22 04:10:53;;;;;;;10.48;5.90;;;2.90;1.00;;;;;;7379583;19;20653;-69
2024/01/22 04:13:23;;;;;;;11.63;6.53;;;2.90;1.00;;;;;;7381055;19;20021;-70
2024/01/22 04:16:04;;;;;;;11.05;7.13;;;2.90;1.00;;;;;;7374362;19;20467;-70
2024/01/22 04:18:34;;;;;;;13.05;7.55;;;3.00;1.00;;;;;;7378446;19;20010;-69
2024/01/22 04:21:04;;;;;;;12.35;7.00;;;2.90;1.00;;;;;;7378578;19;20034;-70
2024/01/22 04:23:34;;;;;;;9.35;6.45;;;3.00;1.00;;;;;;7379624;19;20013;-69
2024/01/22 04:26:08;;;;;;;10.23;6.28;;;3.10;1.00;;;;;;7379876;19;20021;-70
2024/01/22 04:28:38;;;;;;;11.35;6.00;;;3.00;1.00;;;;;;7378897;19;20035;-69
2024/01/22 04:31:08;;;;;;;10.35;6.00;;;3.00;1.00;;;;;;7373917;19;20424;-70
2024/01/22 04:33:38;;;;;;;10.38;5.88;;;3.00;1.00;;;;;;7379238;19;20021;-69
2024/01/22 04:36:09;;;;;;;14.48;6.72;;;3.00;1.00;;;;;;7378299;19;20009;-70
2024/01/22 04:38:39;;;;;;;9.30;5.65;;;3.00;1.00;;;;;;7379082;19;20078;-71
2024/01/22 04:41:12;;;;;;;12.20;6.10;;;3.00;1.00;;;;;;7380513;19;20027;-70
2024/01/22 04:43:42;;;;;;;7.95;5.45;;;3.00;1.00;;;;;;7378244;19;20093;-69
2024/01/22 04:46:13;;;;;;;9.48;6.15;;;3.00;1.00;;;;;;7379351;19;20014;-70
2024/01/22 04:48:43;;;;;;;11.10;5.78;;;3.00;1.00;;;;;;7378532;19;20021;-69
2024/01/22 04:51:14;;;;;;;8.98;5.35;;;2.90;1.00;;;;;;7378770;19;20467;-70
2024/01/22 04:53:44;;;;;;;12.57;5.68;;;2.90;1.00;;;;;;7378939;19;20094;-70
2024/01/22 04:56:17;;;;;;;10.55;5.47;;;2.90;1.00;;;;;;7379500;19;20014;-70
2024/01/22 04:58:47;;;;;;;9.35;5.38;;;2.90;1.00;;;;;;7378634;19;20016;-69
2024/01/22 05:01:17;;;;;;;7.88;5.20;;;3.00;1.00;;;;;;7376712;19;20010;-70
2024/01/22 05:03:47;;;;;;;8.35;4.97;;;3.00;1.00;;;;;;7377708;19;20003;-70
2024/01/22 05:06:18;;;;;;;9.80;5.90;;;3.00;1.00;;;;;;7380172;19;20015;-70
2024/01/22 05:08:48;;;;;;;10.32;5.32;;;3.00;1.00;;;;;;7377319;19;20010;-69
2024/01/22 05:11:20;;;;;;;8.02;5.45;;;3.00;1.00;;;;;;7378632;19;20015;-70
2024/01/22 05:13:51;;;;;;;8.80;5.20;;;3.00;1.00;;;;;;7378314;19;20764;-70
2024/01/22 05:16:24;;;;;;;7.28;5.30;;;3.00;1.00;;;;;;7375881;19;20007;-69
2024/01/22 05:18:54;;;;;;;7.63;5.63;;;3.00;1.00;;;;;;7379630;19;20010;-69
2024/01/22 05:21:24;;;;;;;12.90;5.32;;;3.00;1.00;;;;;;7378858;19;20078;-69
2024/01/22 05:23:57;;;;;;;7.45;5.32;;;3.10;1.00;;;;;;7379852;19;20459;-68
2024/01/22 05:26:29;;;;;;;8.50;5.35;;;3.20;1.00;;;;;;7377019;19;20006;-70
2024/01/22 05:28:59;;;;;;;9.75;5.20;;;3.20;1.00;;;;;;7379253;19;20006;-69
2024/01/22 05:31:29;;;;;;;6.95;5.00;;;3.30;1.00;;;;;;7375231;19;20526;-69
2024/01/22 05:33:59;;;;;;;10.35;5.47;;;3.30;1.00;;;;;;7380414;19;20414;-69
2024/01/22 05:36:29;;;;;;;8.40;5.28;;;3.30;1.00;;;;;;7376007;19;20476;-68
2024/01/22 05:38:59;;;;;;;7.90;5.03;;;3.20;1.00;;;;;;7376603;19;20019;-70
2024/01/22 05:41:32;;;;;;;11.02;5.53;;;3.30;1.00;;;;;;7376736;19;20032;-70
2024/01/22 05:44:02;;;;;;;8.82;4.72;;;3.30;1.00;;;;;;7376656;19;20345;-68
2024/01/22 05:46:32;;;;;;;7.63;5.05;;;3.50;1.00;;;;;;7377137;19;20010;-69
2024/01/22 05:49:03;;;;;;;6.93;4.80;;;3.60;1.00;;;;;;7378004;19;20039;-69
2024/01/22 05:51:33;;;;;;;6.60;4.95;;;3.70;1.00;;;;;;7376792;19;20009;-69
2024/01/22 05:54:03;;;;;;;5.95;4.53;;;3.60;1.00;;;;;;7376798;19;20007;-68
2024/01/22 05:56:35;;;;;;;8.85;5.00;;;3.50;1.00;;;;;;7378103;19;20093;-68
2024/01/22 05:59:06;;;;;;;8.55;5.00;;;3.50;1.00;;;;;;7382809;19;20006;-68
2024/01/22 06:01:36;;;;;;;10.48;4.22;;;3.50;1.00;;;;;;7382260;19;20457;-70
2024/01/22 06:04:07;;;;;;;15.65;5.43;;;3.50;1.00;;;;;;7377570;19;20011;-69
2024/01/22 06:06:37;;;;;;;9.30;5.55;;;3.50;1.00;;;;;;7378619;19;20006;-69
2024/01/22 06:09:07;;;;;;;7.78;5.32;;;3.50;1.00;;;;;;7376504;19;20006;-69
2024/01/22 06:11:40;;;;;;;8.10;5.63;;;3.50;1.00;;;;;;7377040;19;20018;-70
2024/01/22 06:14:10;;;;;;;9.30;5.28;;;3.50;1.00;;;;;;7377326;19;20738;-70
2024/01/22 06:16:40;;;;;;;15.00;5.63;;;3.50;1.00;;;;;;7377407;19;20536;-69
2024/01/22 06:19:10;;;;;;;13.05;5.22;;;3.40;1.00;;;;;;7376992;19;20026;-68
2024/01/22 06:21:40;;;;;;;13.50;6.28;;;3.50;1.00;;;;;;7376869;19;20023;-69
2024/01/22 06:24:10;;;;;;;10.50;5.80;;;3.50;1.00;;;;;;7375054;19;20018;-69
2024/01/22 06:26:43;;;;;;;9.50;5.70;;;3.50;1.00;;;;;;7376036;19;20456;-69
2024/01/22 06:29:13;;;;;;;10.90;5.50;;;3.50;1.00;;;;;;7382348;19;20499;-69
2024/01/22 06:31:44;;;;;;;12.75;5.35;;;3.50;1.00;;;;;;7381374;19;20007;-70
2024/01/22 06:34:14;;;;;;;9.68;5.15;;;3.50;1.00;;;;;;7382613;19;20033;-69
2024/01/22 06:36:44;;;;;;;12.15;5.97;;;3.60;1.00;;;;;;7381748;19;20027;-71
2024/01/22 06:39:14;;;;;;;12.30;6.13;;;3.70;1.00;;;;;;7382493;19;20781;-69
2024/01/22 06:41:47;;;;;;;9.85;5.28;;;3.80;1.00;;;;;;7382463;19;20011;-70
2024/01/22 06:44:18;;;;;;;10.00;5.18;;;3.80;1.00;;;;;;7381428;19;20022;-69
2024/01/22 06:46:48;;;;;;;13.10;5.53;;;3.90;1.00;;;;;;7378053;19;20010;-69
2024/01/22 06:49:18;;;;;;;8.80;5.15;;;4.00;1.00;;;;;;7382712;19;20006;-69
2024/01/22 06:51:48;;;;;;;8.73;4.70;;;4.00;1.00;;;;;;7380487;19;20018;-69
2024/01/22 06:54:19;;;;;;;8.23;5.10;;;4.10;1.00;;;;;;7381162;19;20062;-69
2024/01/22 06:56:55;;;;;;;6.93;4.55;;;4.30;1.00;;;;;;7380045;19;20456;-70
2024/01/22 06:59:25;;;;;;;8.73;4.55;;;4.20;1.00;;;;;;7381567;19;20010;-70
2024/01/22 07:01:55;;;;;;;8.98;4.55;;;4.40;1.00;;;;;;7382284;19;20478;-70
2024/01/22 07:04:25;;;;;;;6.22;3.72;;;4.40;1.00;;;;;;7380411;19;20036;-70
2024/01/22 07:06:55;;;;;;;7.32;4.55;;;4.50;1.00;;;;;;7379390;19;20007;-70
2024/01/22 07:09:26;;;;;;;8.35;3.47;;;4.60;1.00;;;;;;7380965;19;20014;-71
2024/01/22 07:11:58;;;;;;;7.15;4.28;;;4.60;1.00;;;;;;7381362;19;20010;-69
2024/01/22 07:14:29;;;;;;;8.00;3.53;;;4.50;1.00;;;;;;7377711;19;20011;-69
2024/01/22 07:16:59;;;;;;;8.45;4.07;;;4.50;1.00;;;;;;7381319;19;20074;-69
2024/01/22 07:19:30;;;;;;;5.63;3.72;;;4.50;1.00;;;;;;7379711;19;20014;-70
2024/01/22 07:22:00;;;;;;;8.48;3.83;;;4.50;1.00;;;;;;7376371;19;20014;-70
2024/01/22 07:24:30;;;;;;;7.05;3.70;;;4.50;1.00;;;;;;7377636;19;20406;-69
2024/01/22 07:27:03;;;;;;;8.75;3.92;;;4.70;1.00;;;;;;7381136;19;20016;-70
2024/01/22 07:29:34;;;;;;;9.95;3.40;;;4.70;1.00;;;;;;7379624;19;20043;-70
2024/01/22 07:32:04;;;;;;;5.95;3.00;;;4.90;1.00;;;;;;7380100;19;20613;-69
2024/01/22 07:34:34;;;;;;;4.70;2.92;;;5.10;1.00;;;;;;7379452;19;20069;-69
2024/01/22 07:37:06;;;;;;;5.85;2.97;;;5.10;1.00;;;;;;7379596;19;20040;-71
2024/01/22 07:39:36;;;;;;;5.90;3.22;;;5.20;1.00;;;;;;7378266;19;20010;-70
2024/01/22 07:42:10;;;;;;;4.40;2.92;;;5.20;1.00;;;;;;7379717;19;20014;-71
2024/01/22 07:44:40;;;;;;;7.70;3.00;;;5.30;1.00;;;;;;7378873;19;20055;-71
2024/01/22 07:47:10;;;;;;;7.15;3.97;;;5.30;1.00;;;;;;7380160;19;20003;-70
2024/01/22 07:49:40;;;;;;;6.53;3.03;;;5.50;1.00;;;;;;7380022;19;20025;-70
2024/01/22 07:52:10;;;;;;;6.15;3.20;;;5.50;1.00;;;;;;7378757;19;20006;-70
2024/01/22 07:54:40;;;;;;;5.45;3.00;;;5.50;1.00;;;;;;7379470;19;20011;-69
2024/01/22 07:57:13;;;;;;;8.13;2.70;;;5.60;1.00;;;;;;7381278;19;20017;-69
2024/01/22 07:59:44;;;;;;;6.65;2.72;;;5.70;1.00;;;;;;7378840;19;20079;-69
2024/01/22 08:02:14;;;;;;;7.35;3.00;;;5.80;1.00;;;;;;7378996;19;20717;-69
2024/01/22 08:04:45;;;;;;;6.68;3.47;;;5.80;1.00;;;;;;7379157;19;20014;-69
2024/01/22 08:07:15;;;;;;;6.43;2.58;;;5.90;1.00;;;;;;7379677;19;20036;-68
2024/01/22 08:09:49;;;;;;;7.57;2.70;;;5.90;1.00;;;;;;7379420;19;20010;-71
2024/01/22 08:12:22;;;;;;;4.95;2.60;;;6.20;1.00;;;;;;7378805;19;20041;-70
2024/01/22 08:14:52;;;;;;;10.65;3.03;;;6.30;1.00;;;;;;7378276;19;20010;-71
2024/01/22 08:17:23;;;;;;;4.65;2.28;;;6.30;1.00;;;;;;7379695;19;20082;-69
2024/01/22 08:19:53;;;;;;;5.45;2.25;;;6.50;1.00;;;;;;7379321;19;20090;-70
2024/01/22 08:22:23;;;;;;;3.33;2.03;;;6.50;1.00;;;;;;7386824;19;20362;-70
2024/01/22 08:24:53;;;;;;;6.18;1.98;;;6.50;1.00;;;;;;7380954;19;20010;-71
2024/01/22 08:27:25;;;;;;;3.63;2.00;;;6.50;1.00;;;;;;7378595;19;20010;-70
2024/01/22 08:29:56;;;;;;;4.78;2.00;;;6.80;1.00;;;;;;7379737;19;20045;-69
2024/01/22 08:32:26;;;;;;;4.57;1.80;;;6.90;1.00;;;;;;7378048;19;20433;-69
2024/01/22 08:34:56;;;;;;;7.30;2.00;;;6.90;1.00;;;;;;7379127;19;20078;-69
2024/01/22 08:37:26;;;;;;;3.60;1.77;;;6.90;1.00;;;;;;7379428;19;20509;-71
2024/01/22 08:39:57;;;;;;;5.63;2.30;;;6.90;1.00;;;;;;7379697;19;20014;-69
2024/01/22 08:42:30;;;;;;;3.72;1.95;;;6.90;1.00;;;;;;7377946;19;20078;-69
2024/01/22 08:45:00;;;;;;;5.38;2.00;;;6.80;1.00;;;;;;7379966;19;20467;-69
2024/01/22 08:47:30;;;;;;;4.38;1.80;;;6.90;1.00;;;;;;7375716;19;20007;-70
2024/01/22 08:50:00;;;;;;;10.30;2.85;;;6.90;1.00;;;;;;7375432;19;20360;-70
2024/01/22 08:52:30;;;;;;;6.85;2.10;;;6.90;1.00;;;;;;7380476;19;20027;-70
2024/01/22 08:55:01;;;;;;;7.43;2.20;;;6.90;1.00;;;;;;7374959;19;20006;-70
2024/01/22 08:57:34;;;;;;;5.10;1.67;;;7.10;1.00;;;;;;7375271;19;20025;-70
2024/01/22 09:00:06;;;;;;;5.90;1.85;;;7.30;1.00;;;;;;7374662;19;20023;-69
2024/01/22 09:02:36;;;;;;;6.85;1.70;;;7.40;1.00;;;;;;7377041;19;20018;-69
2024/01/22 09:05:07;;;;;;;2.30;1.30;;;7.60;1.00;;;;;;7377354;19;20015;-71
2024/01/22 09:07:37;;;;;;;2.25;1.30;;;7.90;1.00;;;;;;7376912;19;20025;-70
2024/01/22 09:10:11;;;;;;;3.35;1.20;;;8.10;1.00;;;;;;7376136;19;20067;-71
2024/01/22 09:12:44;;;;;;;2.10;0.98;;;8.40;1.00;;;;;;7377065;19;20003;-70
2024/01/22 09:15:17;;;;;;;2.25;0.70;;;8.60;1.00;;;;;;7375599;19;20015;-70
2024/01/22 09:17:48;;;;;;;1.17;0.77;;;8.80;1.00;;;;;;7376383;19;20031;-70
2024/01/22 09:20:19;;;;;;;1.13;0.60;;;9.20;1.00;;;;;;7376339;19;20010;-72
2024/01/22 09:22:49;;;;;;;2.33;0.73;;;9.50;1.00;;;;;;7376302;19;20031;-68
2024/01/22 09:25:19;;;;;;;1.10;0.57;;;9.40;1.00;;;;;;7376986;19;20479;-69
2024/01/22 09:27:52;;;;;;;0.55;0.50;;;9.70;1.00;;;;;;7376280;19;20007;-71
2024/01/22 09:30:22;;;;;;;0.82;0.57;;;9.80;1.00;;;;;;7376049;19;20022;-71
2024/01/22 09:32:57;;;;;;;1.90;0.57;;;9.70;1.00;;;;;;7377764;19;20106;-70
2024/01/22 09:35:27;;;;;;;8.63;5.38;;;9.80;1.00;;;;;;7378067;19;20007;-71
2024/01/22 09:37:58;;;;;;;1.15;0.70;;;10.00;1.00;;;;;;7378818;19;20034;-70
2024/01/22 09:40:33;;;;;;;3.88;1.00;;;10.00;1.00;;;;;;7376874;19;20376;-70
2024/01/22 09:43:07;;;;;;;1.20;0.70;;;10.00;1.00;;;;;;7375979;19;20018;-70
2024/01/22 09:45:37;;;;;;;1.35;0.95;;;10.00;1.00;;;;;;7376249;19;20014;-70
2024/01/22 09:48:10;;;;;;;2.13;0.80;;;10.00;1.00;;;;;;7375015;19;20097;-69
2024/01/22 09:50:42;;;;;;;2.10;0.50;;;10.10;1.00;;;;;;7374791;19;20478;-69
2024/01/22 09:53:13;;;;;;;3.15;0.60;;;10.10;1.00;;;;;;7377689;19;20010;-70
2024/01/22 09:55:44;;;;;;;1.02;0.60;;;10.20;1.00;;;;;;7374865;19;20031;-70
2024/01/22 09:58:23;;;;;;;0.68;0.50;;;10.30;1.00;;;;;;7375313;19;20116;-70
2024/01/22 10:00:55;;;;;;;1.25;0.60;;;10.40;1.00;;;;;;7375400;19;20007;-71
2024/01/22 10:03:26;;;;;;;4.20;0.85;;;10.40;1.00;;;;;;7382361;19;20014;-70
2024/01/22 10:05:57;;;;;;;1.10;0.70;;;10.40;1.00;;;;;;7382093;19;20025;-71
2024/01/22 10:08:29;;;;;;;1.83;0.80;;;10.50;1.00;;;;;;7380880;19;20006;-70
2024/01/22 10:10:59;;;;;;;0.75;0.55;;;10.40;1.00;;;;;;7383027;19;20015;-70
2024/01/22 10:13:32;;;;;;;2.75;0.43;;;10.40;1.00;;;;;;7380456;19;20040;-69
2024/01/22 10:16:13;;;;;;;2.40;0.68;;;10.50;1.00;;;;;;7382480;19;20036;-69
2024/01/22 10:18:58;;;;;;;1.08;0.38;;;10.40;1.00;;;;;;6870921;19;2004843;-70
2024/01/22 10:21:30;;;;;;;2.30;1.48;;;10.50;1.00;;;;;;7377681;19;20002;-71
2024/01/22 10:24:01;;;;;;;4.00;1.25;;;10.60;1.00;;;;;;7382602;19;20007;-71
2024/01/22 10:26:32;;;;;;;0.68;0.43;;;10.50;1.00;;;;;;7378605;19;20011;-70
2024/01/22 10:29:21;;;;;;;0.90;0.55;;;10.40;1.00;;;;;;7382937;19;20011;-71
2024/01/22 10:32:02;;;;;;;0.80;0.63;;;10.40;1.00;;;;;;6869327;19;2004720;-72
2024/01/22 10:34:33;;;;;;;1.90;0.80;;;10.60;1.00;;;;;;7383265;19;20033;-71
2024/01/22 10:37:08;;;;;;;1.60;0.70;;;10.50;1.00;;;;;;7376750;19;20010;-70
2024/01/22 10:39:40;;;;;;;1.65;0.60;;;10.60;1.00;;;;;;7375508;19;20014;-70
2024/01/22 10:42:12;;;;;;;5.28;1.90;;;10.80;1.00;;;;;;7394001;19;20025;-71
2024/01/22 10:44:46;;;;;;;1.67;0.70;;;10.70;1.00;;;;;;7387036;19;20098;-70
2024/01/22 10:47:18;;;;;;;0.70;0.50;;;10.90;1.00;;;;;;7382813;19;20013;-70
2024/01/22 10:49:49;;;;;;;3.75;0.50;;;11.00;1.00;;;;;;7380800;19;20014;-70
2024/01/22 10:52:21;;;;;;;1.23;0.75;;;11.10;1.00;;;;;;7382300;19;20010;-71
2024/01/22 10:54:52;;;;;;;1.88;0.50;;;11.30;1.00;;;;;;7380278;19;20014;-71
2024/01/22 10:57:29;;;;;;;0.77;0.32;;;11.30;1.00;;;;;;7381078;19;20043;-71
2024/01/22 11:00:06;;;;;;;2.40;0.68;;;11.50;1.00;;;;;;7379929;19;20003;-71
2024/01/22 11:02:40;;;;;;;1.02;0.47;;;11.60;1.00;;;;;;7378643;19;20031;-71
2024/01/22 11:05:16;;;;;;;2.13;0.93;;;11.70;1.00;;;;;;7380111;19;20365;-71
2024/01/22 11:07:49;;;;;;;3.15;0.65;;;11.80;1.00;;;;;;7380303;19;20349;-71
2024/01/22 11:10:20;;;;;;;0.82;0.50;;;11.80;1.00;;;;;;7379652;19;20479;-71
2024/01/22 11:12:54;;;;;;;0.82;0.40;;;11.80;1.00;;;;;;7378608;19;20312;-71
2024/01/22 11:15:27;;;;;;;1.60;0.47;;;11.80;1.00;;;;;;7380295;19;20014;-71
2024/01/22 11:17:57;;;;;;;2.60;0.70;;;11.70;1.00;;;;;;7381399;19;20015;-70
2024/01/22 11:20:28;;;;;;;0.60;0.47;;;11.60;1.00;;;;;;7378412;19;20010;-70
2024/01/22 11:23:02;;;;;;;1.25;0.50;;;11.70;1.00;;;;;;7380692;19;20391;-70
2024/01/22 11:25:33;;;;;;;1.45;0.88;;;11.80;1.00;;;;;;7379800;19;20394;-70
2024/01/22 11:28:05;;;;;;;4.35;3.13;;;11.80;1.00;;;;;;7378827;19;20109;-70
2024/01/22 11:30:41;;;;;;;1.33;0.80;;;11.70;1.00;;;;;;7379147;19;20013;-71
2024/01/22 11:33:31;;;;;;;1.20;0.70;;;11.70;1.00;;;;;;7376670;19;20090;-71
2024/01/22 11:36:03;;;;;;;1.00;0.70;;;11.60;1.00;;;;;;7380673;19;20483;-70
2024/01/22 11:38:51;;;;;;;1.77;0.80;;;11.60;1.00;;;;;;7379664;19;20064;-71
2024/01/22 11:41:30;;;;;;;1.27;0.60;;;11.60;1.00;;;;;;6870066;19;2004224;-70
2024/01/22 11:44:01;;;;;;;1.15;0.55;;;11.50;1.00;;;;;;7378629;19;20131;-70
2024/01/22 11:46:34;;;;;;;1.70;0.65;;;11.50;1.00;;;;;;7379524;19;20716;-71
2024/01/22 11:49:11;;;;;;;1.40;0.50;;;11.30;1.00;;;;;;7381508;19;20014;-71
2024/01/22 11:51:42;;;;;;;0.98;0.50;;;11.20;1.00;;;;;;7375824;19;20017;-70
2024/01/22 11:54:12;;;;;;;3.85;0.50;;;11.10;1.00;;;;;;7379362;19;20014;-71
2024/01/22 11:56:42;;;;;;;1.33;0.70;;;11.10;1.00;;;;;;7378441;19;20504;-70
2024/01/22 11:59:17;;;;;;;1.30;0.50;;;11.00;1.00;;;;;;7377628;19;20090;-70
2024/01/22 12:01:49;;;;;;;1.02;0.60;;;11.00;1.00;;;;;;7375693;19;20018;-70
2024/01/22 12:04:19;;;;;;;0.65;0.40;;;11.10;1.00;;;;;;7377211;19;20007;-70
2024/01/22 12:06:50;;;;;;;1.67;0.80;;;11.20;1.00;;;;;;7376979;19;20059;-70
2024/01/22 12:09:22;;;;;;;1.38;0.95;;;11.10;1.00;;;;;;7377786;19;20021;-70
2024/01/22 12:11:55;;;;;;;1.67;0.50;;;11.00;1.00;;;;;;7376605;19;20089;-71
2024/01/22 12:14:26;;;;;;;0.40;0.30;;;11.00;1.00;;;;;;7377942;19;20034;-70
2024/01/22 12:17:04;;;;;;;0.82;0.45;;;10.90;1.00;;;;;;7378761;19;20010;-71
2024/01/22 12:19:35;;;;;;;0.77;0.40;;;10.90;1.00;;;;;;7379516;19;20566;-70
2024/01/22 12:22:06;;;;;;;3.35;0.63;;;10.90;1.00;;;;;;7379147;19;20022;-71
2024/01/22 12:24:36;;;;;;;2.05;0.50;;;11.00;1.00;;;;;;7375757;19;20117;-70
2024/01/22 12:27:08;;;;;;;0.57;0.40;;;11.10;1.00;;;;;;7378893;19;20050;-70
2024/01/22 12:29:38;;;;;;;1.15;0.57;;;10.90;1.00;;;;;;7375705;19;20014;-71
2024/01/22 12:32:12;;;;;;;0.93;0.40;;;10.80;1.00;;;;;;7378701;19;20416;-71
2024/01/22 12:34:43;;;;;;;0.80;0.50;;;10.70;1.00;;;;;;7378027;19;20026;-71
2024/01/22 12:37:18;;;;;;;1.63;0.60;;;10.70;1.00;;;;;;7379377;19;20502;-70
2024/01/22 12:39:48;;;;;;;1.02;0.50;;;10.60;1.00;;;;;;7376964;19;20014;-70
2024/01/22 12:42:21;;;;;;;0.88;0.40;;;10.60;1.00;;;;;;7377921;19;20096;-70
2024/01/22 12:44:59;;;;;;;1.23;0.50;;;10.50;1.00;;;;;;7376424;19;20424;-71
2024/01/22 12:47:33;;;;;;;0.60;0.43;;;10.60;1.00;;;;;;7378327;19;20365;-71
2024/01/22 12:50:05;;;;;;;0.47;0.40;;;10.50;1.00;;;;;;7377527;19;20499;-71
2024/01/22 12:52:35;;;;;;;1.80;0.80;;;10.60;1.00;;;;;;7376993;19;20006;-70
2024/01/22 12:55:06;;;;;;;2.63;1.58;;;10.50;1.00;;;;;;7377007;19;20010;-70
2024/01/22 12:57:36;;;;;;;1.30;1.10;;;10.60;1.00;;;;;;7379597;19;20003;-70
2024/01/22 13:00:09;;;;;;;2.40;0.73;;;10.60;1.00;;;;;;7378121;19;20409;-70
2024/01/22 13:02:43;;;;;;;1.77;0.70;;;10.60;1.00;;;;;;7379997;19;20006;-70
2024/01/22 13:05:13;;;;;;;2.67;0.60;;;10.60;1.00;;;;;;7385343;19;20009;-71
2024/01/22 13:07:44;;;;;;;0.80;0.50;;;10.70;1.00;;;;;;7377168;19;20074;-70
2024/01/22 13:10:15;;;;;;;0.77;0.57;;;10.80;1.00;;;;;;7375304;19;20538;-71
2024/01/22 13:12:45;;;;;;;1.77;0.70;;;10.70;1.00;;;;;;7376901;19;20390;-70
2024/01/22 13:15:15;;;;;;;1.42;0.80;;;10.80;1.00;;;;;;7377102;19;20423;-70
2024/01/22 13:17:50;;;;;;;1.15;0.60;;;11.00;1.00;;;;;;7376156;19;20033;-70
2024/01/22 13:20:21;;;;;;;1.30;0.82;;;11.00;1.00;;;;;;7375617;19;20085;-69
2024/01/22 13:22:51;;;;;;;0.82;0.50;;;11.10;1.00;;;;;;7378097;19;20036;-70
2024/01/22 13:25:22;;;;;;;1.33;0.57;;;11.00;1.00;;;;;;7377324;19;20043;-70